Time;durP1;ratioP1;P1;durP2;ratioP2;P2;SDS_P1;SDS_P2;PMS_P1;PMS_P2;Temp;Humidity;BMP_temperature;BMP_pressure;BME280_temperature;BME280_humidity;BME280_pressure;Samples;Min_cycle;Max_cycle;Signal;HPM_P1;HPM_P2
2022/03/20 00:00:46;;;;;;;25.50;12.68;;;;;;;0.87;32.92;96754.00;4996345;28;20101;-60
2022/03/20 00:03:12;;;;;;;22.55;12.52;;;;;;;0.74;33.70;96756.50;5000564;28;20121;-60
2022/03/20 00:05:39;;;;;;;20.75;12.90;;;;;;;1.03;31.88;96758.38;5001716;28;20117;-60
2022/03/20 00:08:13;;;;;;;19.75;12.27;;;;;;;0.80;32.05;96750.91;4998177;28;20086;-60
2022/03/20 00:10:44;;;;;;;18.90;12.48;;;;;;;0.83;32.35;96747.25;4995137;28;20645;-60
2022/03/20 00:13:10;;;;;;;22.35;13.00;;;;;;;0.92;31.89;96741.47;4998812;28;20564;-60
2022/03/20 00:15:36;;;;;;;20.83;12.43;;;;;;;0.88;32.12;96739.13;5001832;28;20126;-60
2022/03/20 00:18:01;;;;;;;23.83;13.00;;;;;;;0.90;31.48;96734.63;4998808;28;20113;-60
2022/03/20 00:20:26;;;;;;;23.50;13.18;;;;;;;1.02;31.46;96733.09;5001609;28;20170;-59
2022/03/20 00:22:52;;;;;;;21.13;12.88;;;;;;;0.86;31.93;96731.34;5035973;28;20110;-60
2022/03/20 00:25:18;;;;;;;21.70;12.80;;;;;;;0.79;32.01;96733.47;5016938;28;20104;-60
2022/03/20 00:27:43;;;;;;;20.88;12.02;;;;;;;0.63;32.83;96717.81;5009647;28;20097;-60
2022/03/20 00:30:09;;;;;;;19.98;12.68;;;;;;;0.60;31.94;96723.22;5000147;28;20161;-60
2022/03/20 00:32:34;;;;;;;17.25;11.75;;;;;;;0.46;32.86;96710.91;4994514;28;20510;-60
2022/03/20 00:35:00;;;;;;;23.60;13.05;;;;;;;0.66;32.24;96714.16;4988757;28;20094;-59
2022/03/20 00:37:28;;;;;;;19.10;11.88;;;;;;;0.64;31.69;96713.38;5001172;28;20568;-60
2022/03/20 00:39:54;;;;;;;21.27;12.57;;;;;;;0.43;31.83;96717.16;4991780;28;20086;-60
2022/03/20 00:42:19;;;;;;;22.63;12.23;;;;;;;0.50;32.08;96717.66;5001327;28;20156;-60
2022/03/20 00:44:45;;;;;;;18.50;11.73;;;;;;;0.30;31.93;96714.38;4992987;28;20533;-59
2022/03/20 00:47:11;;;;;;;20.15;12.18;;;;;;;0.23;32.62;96715.66;5000015;28;20143;-59
2022/03/20 00:49:36;;;;;;;20.90;12.45;;;;;;;0.33;32.80;96713.38;5002293;28;20306;-59
2022/03/20 00:52:04;;;;;;;20.85;13.02;;;;;;;0.45;32.02;96702.19;5040900;28;20547;-59
2022/03/20 00:54:30;;;;;;;18.58;11.75;;;;;;;0.36;33.06;96701.88;5023878;28;20644;-59
2022/03/20 00:56:55;;;;;;;21.02;12.25;;;;;;;0.53;31.40;96695.66;5030783;28;20089;-59
2022/03/20 00:59:20;;;;;;;19.83;12.57;;;;;;;0.43;32.03;96701.44;5027256;28;20293;-60
2022/03/20 01:01:46;;;;;;;21.50;12.65;;;;;;;0.47;32.34;96695.09;5027790;28;20105;-60
2022/03/20 01:04:12;;;;;;;19.38;12.73;;;;;;;0.34;32.87;96691.47;5007885;28;20066;-60
2022/03/20 01:06:38;;;;;;;16.80;11.25;;;;;;;0.29;32.77;96683.03;5032338;28;20133;-59
2022/03/20 01:09:03;;;;;;;17.55;11.20;;;;;;;0.53;32.76;96669.44;5017879;28;20180;-60
2022/03/20 01:11:29;;;;;;;20.52;12.63;;;;;;;0.83;31.54;96669.47;5020903;28;20215;-60
2022/03/20 01:13:55;;;;;;;23.83;12.57;;;;;;;0.85;32.19;96659.69;5037328;28;20109;-60
2022/03/20 01:16:21;;;;;;;19.48;11.93;;;;;;;0.58;32.49;96668.25;5015106;28;20092;-60
2022/03/20 01:18:47;;;;;;;18.42;11.18;;;;;;;0.68;32.41;96672.97;5035468;28;20097;-60
2022/03/20 01:21:12;;;;;;;19.60;12.43;;;;;;;0.77;32.66;96661.94;5025160;28;20104;-60
2022/03/20 01:23:39;;;;;;;19.67;11.95;;;;;;;0.65;32.25;96658.25;5041036;28;20093;-60
2022/03/20 01:26:04;;;;;;;23.20;11.70;;;;;;;0.62;32.44;96663.69;5015048;28;20493;-59
2022/03/20 01:28:29;;;;;;;22.10;12.27;;;;;;;0.90;32.15;96640.22;5040666;28;20573;-60
2022/03/20 01:30:55;;;;;;;21.92;12.98;;;;;;;1.11;30.94;96651.22;5013676;28;20101;-60
2022/03/20 01:33:21;;;;;;;17.98;12.02;;;;;;;1.05;30.87;96638.44;5040101;28;20098;-60
2022/03/20 01:35:46;;;;;;;25.75;12.77;;;;;;;1.41;30.55;96636.31;5012198;28;20360;-60
2022/03/20 01:38:18;;;;;;;19.67;12.85;;;;;;;1.32;30.43;96633.31;5028637;28;20113;-60
2022/03/20 01:40:43;;;;;;;24.25;12.85;;;;;;;1.50;30.22;96628.69;5003659;28;20082;-60
2022/03/20 01:43:09;;;;;;;18.63;12.38;;;;;;;1.49;30.71;96626.16;5035229;28;20597;-60
2022/03/20 01:45:34;;;;;;;21.52;13.13;;;;;;;1.40;30.65;96618.88;5015234;28;20180;-60
2022/03/20 01:47:59;;;;;;;19.83;12.80;;;;;;;1.46;30.44;96621.97;5036986;28;20091;-60
2022/03/20 01:50:26;;;;;;;21.08;12.98;;;;;;;1.24;30.79;96611.97;5039394;28;20208;-60
2022/03/20 01:52:52;;;;;;;22.00;12.90;;;;;;;1.30;30.70;96611.56;5043479;28;20081;-60
2022/03/20 01:55:18;;;;;;;21.83;13.20;;;;;;;1.34;30.72;96615.72;5027121;28;20094;-60
2022/03/20 01:57:44;;;;;;;22.80;12.82;;;;;;;1.20;30.45;96603.41;5034631;28;20210;-60
2022/03/20 02:00:11;;;;;;;20.95;13.60;;;;;;;1.25;30.55;96597.88;5028933;28;20397;-60
2022/03/20 02:02:36;;;;;;;22.92;13.02;;;;;;;1.06;31.29;96601.63;5043817;28;20620;-60
2022/03/20 02:05:02;;;;;;;21.63;12.88;;;;;;;0.90;31.63;96598.28;5017633;28;20335;-60
2022/03/20 02:07:28;;;;;;;19.67;12.98;;;;;;;1.14;30.66;96597.72;5025818;28;20309;-60
2022/03/20 02:09:53;;;;;;;21.02;12.93;;;;;;;0.90;31.54;96598.28;5010768;28;20189;-60
2022/03/20 02:12:19;;;;;;;23.40;14.05;;;;;;;0.89;31.62;96588.72;5044078;28;20426;-60
2022/03/20 02:14:44;;;;;;;20.05;13.43;;;;;;;0.83;31.79;96593.41;5017448;28;20118;-60
2022/03/20 02:17:10;;;;;;;22.80;13.00;;;;;;;0.96;31.74;96595.28;5052557;28;20114;-60
2022/03/20 02:19:36;;;;;;;24.52;14.00;;;;;;;1.17;31.32;96594.91;5028895;28;20402;-60
2022/03/20 02:22:01;;;;;;;20.15;13.27;;;;;;;1.26;31.40;96593.50;5039726;28;20108;-60
2022/03/20 02:24:44;;;;;;;23.52;13.25;;;;;;;1.08;31.65;96593.69;5016690;28;20077;-60
2022/03/20 02:27:17;;;;;;;23.73;13.75;;;;;;;1.09;31.26;96587.53;5027943;28;20140;-60
2022/03/20 02:29:43;;;;;;;22.83;14.15;;;;;;;1.32;31.12;96590.47;5014405;28;20590;-60
2022/03/20 02:32:10;;;;;;;21.55;13.13;;;;;;;1.06;31.44;96596.41;5036048;28;20183;-60
2022/03/20 02:34:36;;;;;;;23.33;14.30;;;;;;;1.18;32.19;96583.47;5019424;28;20439;-60
2022/03/20 02:37:02;;;;;;;21.40;12.70;;;;;;;1.01;32.01;96581.88;5033931;28;20186;-60
2022/03/20 02:39:28;;;;;;;22.08;12.70;;;;;;;1.10;31.50;96582.16;5012477;28;20456;-60
2022/03/20 02:41:54;;;;;;;29.05;14.23;;;;;;;1.09;31.97;96574.41;5031142;28;20097;-60
2022/03/20 02:44:20;;;;;;;20.88;13.05;;;;;;;1.14;31.29;96566.22;5016364;28;20078;-60
2022/03/20 02:46:46;;;;;;;22.00;14.20;;;;;;;1.14;31.33;96568.84;5025872;28;20659;-60
2022/03/20 02:49:11;;;;;;;24.00;13.95;;;;;;;1.32;31.33;96572.09;5016782;28;20555;-60
2022/03/20 02:51:37;;;;;;;21.02;13.45;;;;;;;1.07;31.42;96563.16;5014995;28;20539;-60
2022/03/20 02:54:04;;;;;;;23.83;14.35;;;;;;;1.27;31.47;96556.69;5019152;28;20103;-60
2022/03/20 02:56:29;;;;;;;20.17;13.23;;;;;;;0.85;32.17;96546.09;5038621;28;20076;-60
2022/03/20 02:58:55;;;;;;;22.90;13.88;;;;;;;0.94;32.09;96547.31;5029245;28;20783;-60
2022/03/20 03:01:21;;;;;;;23.35;14.38;;;;;;;0.70;32.42;96546.13;5039475;28;20395;-60
2022/03/20 03:03:46;;;;;;;21.95;14.07;;;;;;;0.92;32.06;96543.97;5026012;28;20074;-60
2022/03/20 03:06:12;;;;;;;23.98;13.63;;;;;;;0.57;33.31;96546.00;5033273;28;20589;-60
2022/03/20 03:11:22;;;;;;;22.05;13.90;;;;;;;0.47;32.64;96534.38;5052029;28;20296;-60
2022/03/20 03:13:47;;;;;;;24.40;14.02;;;;;;;0.64;32.31;96541.25;5027120;28;20106;-60
2022/03/20 03:16:14;;;;;;;23.40;14.48;;;;;;;0.58;32.89;96526.72;5031912;28;20089;-60
2022/03/20 03:18:43;;;;;;;18.92;12.77;;;;;;;0.51;33.25;96529.81;5028874;28;20556;-58
2022/03/20 03:21:12;;;;;;;23.05;13.70;;;;;;;0.46;32.66;96527.47;5029364;28;20581;-58
2022/03/20 03:23:38;;;;;;;;;;;;;;;0.20;33.76;96532.47;5032731;28;20078;-60
2022/03/20 03:26:06;;;;;;;22.67;12.88;;;;;;;0.25;32.99;96543.53;5015141;28;20344;-59
2022/03/20 03:28:34;;;;;;;22.50;14.27;;;;;;;0.47;33.09;96535.25;5024592;28;20089;-60
2022/03/20 03:31:07;;;;;;;21.08;13.90;;;;;;;0.48;32.65;96525.59;5037364;28;20120;-60
2022/03/20 03:33:33;;;;;;;21.90;13.73;;;;;;;0.49;32.70;96524.66;5030962;28;20331;-59
2022/03/20 03:35:58;;;;;;;24.58;14.73;;;;;;;0.23;33.35;96529.69;5037873;28;20454;-60
2022/03/20 03:38:30;;;;;;;25.75;14.63;;;;;;;0.29;33.78;96531.09;5003968;28;20110;-59
2022/03/20 03:40:55;;;;;;;21.40;13.85;;;;;;;0.08;33.11;96532.25;5015021;28;20180;-59
2022/03/20 03:43:21;;;;;;;20.35;13.82;;;;;;;0.04;34.21;96529.94;5040793;28;20092;-59
2022/03/20 03:45:47;;;;;;;20.85;14.32;;;;;;;0.19;33.27;96531.66;5015499;28;20109;-60
2022/03/20 03:48:12;;;;;;;24.77;14.23;;;;;;;0.07;33.74;96527.97;5042247;28;20195;-60
2022/03/20 03:50:38;;;;;;;25.58;14.10;;;;;;;-0.24;34.60;96534.97;5027170;28;20097;-60
2022/03/20 03:53:04;;;;;;;22.13;13.48;;;;;;;-0.22;34.67;96535.72;5031468;28;20110;-60
2022/03/20 03:55:31;;;;;;;25.02;14.95;;;;;;;-0.38;34.20;96524.44;5025625;28;20513;-60
2022/03/20 03:57:56;;;;;;;25.00;14.40;;;;;;;-0.39;34.64;96522.75;5034324;28;20581;-60
2022/03/20 04:00:22;;;;;;;23.33;14.60;;;;;;;-0.37;35.17;96519.09;5022273;28;20109;-60
2022/03/20 04:02:48;;;;;;;23.08;13.85;;;;;;;-0.27;34.56;96511.56;5038266;28;20105;-60
2022/03/20 04:05:17;;;;;;;21.50;13.73;;;;;;;-0.72;35.90;96512.31;5018371;28;20117;-60
2022/03/20 04:07:47;;;;;;;22.85;13.45;;;;;;;-0.73;35.65;96518.50;5037581;28;20621;-60
2022/03/20 04:10:13;;;;;;;25.77;14.52;;;;;;;-0.49;35.44;96510.19;5017089;28;20109;-60
2022/03/20 04:12:40;;;;;;;25.83;14.30;;;;;;;-0.60;36.05;96515.19;5040074;28;20194;-60
2022/03/20 04:15:07;;;;;;;22.83;13.35;;;;;;;-0.79;35.51;96513.59;5014832;28;20085;-60
2022/03/20 04:17:32;;;;;;;29.13;15.10;;;;;;;-0.49;35.20;96507.59;5029607;28;20193;-60
2022/03/20 04:19:58;;;;;;;26.02;15.23;;;;;;;-0.53;35.33;96506.06;5014721;28;20620;-60
2022/03/20 04:22:24;;;;;;;22.52;14.43;;;;;;;-0.70;35.75;96499.16;5041140;28;20292;-60
2022/03/20 04:24:50;;;;;;;24.40;15.35;;;;;;;-0.52;35.87;96496.44;5013656;28;20160;-60
2022/03/20 04:27:16;;;;;;;22.73;15.07;;;;;;;-0.53;35.46;96493.00;5010036;28;20413;-60
2022/03/20 04:29:41;;;;;;;22.63;14.05;;;;;;;-0.73;36.32;96496.72;5036717;28;20124;-60
2022/03/20 04:32:08;;;;;;;23.70;13.98;;;;;;;-0.85;36.40;96500.84;5023046;28;20511;-60
2022/03/20 04:34:34;;;;;;;17.67;11.38;;;;;;;-0.99;36.14;96497.19;5033219;28;20624;-60
2022/03/20 04:37:04;;;;;;;22.23;14.65;;;;;;;-0.91;36.60;96498.56;5025540;28;20216;-60
2022/03/20 04:39:29;;;;;;;26.98;14.32;;;;;;;-0.85;36.13;96490.38;5025108;28;20207;-60
2022/03/20 04:41:55;;;;;;;23.33;15.27;;;;;;;-0.62;36.16;96480.41;5031480;28;20200;-60
2022/03/20 04:44:20;;;;;;;25.52;15.13;;;;;;;-0.80;36.36;96479.66;5018065;28;20078;-60
2022/03/20 04:46:46;;;;;;;23.15;14.48;;;;;;;-0.69;35.89;96477.31;5040571;28;20506;-60
2022/03/20 05:00:07;;;;;;;23.73;14.02;;;;;;;-1.11;37.38;96462.09;5034949;28;20154;-60
2022/03/20 05:02:33;;;;;;;23.45;14.18;;;;;;;-1.17;36.94;96464.22;5012444;28;20110;-60
2022/03/20 05:04:59;;;;;;;23.13;13.85;;;;;;;-1.09;37.39;96464.63;5032190;28;20387;-60
2022/03/20 05:07:24;;;;;;;23.73;15.95;;;;;;;-0.86;36.42;96457.31;5014934;28;20731;-60
2022/03/20 05:15:17;;;;;;;24.85;14.70;;;;;;;-0.70;36.25;96447.69;5019480;28;20117;-60
2022/03/20 05:17:43;;;;;;;24.33;15.13;;;;;;;-0.63;36.01;96442.09;5008515;28;20571;-60
2022/03/20 05:20:10;;;;;;;24.90;14.57;;;;;;;-0.82;36.60;96422.22;4983221;28;20078;-60
2022/03/20 05:22:37;;;;;;;25.98;15.55;;;;;;;-0.69;36.34;96411.91;4996819;28;20160;-60
2022/03/20 05:25:04;;;;;;;27.00;15.55;;;;;;;-0.34;36.15;96410.81;5002836;28;20321;-60
2022/03/20 05:27:29;;;;;;;23.17;14.10;;;;;;;-0.67;36.56;96417.06;5003056;28;20213;-60
2022/03/20 05:29:55;;;;;;;27.42;16.35;;;;;;;-0.66;36.19;96429.19;4998606;28;20114;-60
2022/03/20 05:32:20;;;;;;;33.95;16.85;;;;;;;-0.43;35.86;96440.97;4995753;28;20086;-59
2022/03/20 05:34:46;;;;;;;28.80;16.73;;;;;;;-0.35;36.14;96464.06;5001457;28;20137;-60
2022/03/20 05:37:11;;;;;;;26.50;16.25;;;;;;;-0.49;36.35;96470.09;5013918;28;20101;-60
2022/03/20 05:39:37;;;;;;;27.23;15.93;;;;;;;-0.28;35.90;96473.25;5016426;28;20156;-59
2022/03/20 05:42:03;;;;;;;25.70;15.57;;;;;;;0.11;35.41;96484.13;5026022;28;20175;-60
2022/03/20 05:44:29;;;;;;;22.88;14.80;;;;;;;-0.07;35.50;96480.78;5018115;28;20078;-60
2022/03/20 05:46:54;;;;;;;25.38;15.05;;;;;;;-0.31;35.67;96482.13;5029902;28;20201;-60
2022/03/20 05:49:21;;;;;;;25.20;14.57;;;;;;;-0.46;36.63;96491.72;5023338;28;20129;-60
2022/03/20 05:51:47;;;;;;;27.73;16.15;;;;;;;-0.36;36.02;96478.09;4999091;28;20393;-60
2022/03/20 05:54:13;;;;;;;26.75;15.98;;;;;;;-0.51;36.47;96490.28;4993860;28;20134;-60
2022/03/20 05:59:22;;;;;;;25.25;15.68;;;;;;;-0.41;35.76;96485.38;5013130;28;20112;-60
2022/03/20 06:01:50;;;;;;;31.02;15.63;;;;;;;-0.52;35.86;96481.59;5010273;28;20592;-60
2022/03/20 06:04:15;;;;;;;25.13;15.95;;;;;;;-0.55;36.81;96481.75;5014535;28;20188;-60
2022/03/20 06:06:42;;;;;;;33.13;15.80;;;;;;;-0.51;36.93;96478.03;5016293;28;20098;-60
2022/03/20 06:09:08;;;;;;;24.45;15.32;;;;;;;-0.22;36.25;96465.06;5017406;28;20321;-60
2022/03/20 06:11:34;;;;;;;27.50;15.80;;;;;;;-0.33;36.05;96459.59;5023944;28;20619;-60
2022/03/20 06:14:00;;;;;;;19.70;12.52;;;;;;;-0.51;36.30;96462.34;5010414;28;20310;-60
2022/03/20 06:16:28;;;;;;;21.63;12.73;;;;;;;-0.81;37.47;96471.00;5023901;28;20100;-60
2022/03/20 06:18:54;;;;;;;23.63;15.38;;;;;;;-0.61;36.59;96469.03;5010059;28;20474;-60
2022/03/20 06:21:19;;;;;;;22.33;15.18;;;;;;;-0.63;36.63;96468.28;5023291;28;20117;-59
2022/03/20 06:23:45;;;;;;;29.83;16.48;;;;;;;-0.55;36.87;96471.28;5006927;28;20658;-59
2022/03/20 06:26:11;;;;;;;27.42;16.48;;;;;;;-0.33;37.23;96475.31;5017276;28;20175;-60
2022/03/20 06:28:40;;;;;;;28.67;16.75;;;;;;;-0.43;37.34;96470.59;5015222;28;20118;-59
2022/03/20 06:31:10;;;;;;;21.38;13.63;;;;;;;-0.38;37.03;96461.63;5023100;28;20900;-60
2022/03/20 06:33:37;;;;;;;24.92;15.70;;;;;;;-0.32;37.61;96470.00;5022814;28;20200;-60
2022/03/20 06:36:03;;;;;;;22.25;14.75;;;;;;;-0.26;36.89;96462.69;5022268;28;20082;-60
2022/03/20 06:38:30;;;;;;;25.98;15.40;;;;;;;-0.30;37.43;96469.91;5005404;28;20106;-59
2022/03/20 06:40:56;;;;;;;26.73;16.35;;;;;;;-0.06;37.01;96466.78;5008951;28;20132;-60
2022/03/20 06:43:21;;;;;;;29.50;16.17;;;;;;;0.25;36.01;96469.34;5043021;28;20108;-60
2022/03/20 06:45:46;;;;;;;25.02;14.65;;;;;;;0.10;37.08;96463.25;5033609;28;20106;-60
2022/03/20 06:48:12;;;;;;;27.00;16.90;;;;;;;0.40;35.93;96463.19;5042654;28;20086;-60
2022/03/20 06:50:37;;;;;;;27.63;16.88;;;;;;;0.43;36.24;96464.75;5033777;28;20109;-60
2022/03/20 06:53:04;;;;;;;27.25;17.23;;;;;;;0.46;36.39;96469.81;5042429;28;20621;-60
2022/03/20 06:55:30;;;;;;;25.70;15.68;;;;;;;0.58;36.23;96468.25;5043117;28;20085;-60
2022/03/20 06:57:56;;;;;;;29.73;17.45;;;;;;;0.90;35.60;96470.63;5042770;28;20841;-60
2022/03/20 07:00:22;;;;;;;25.98;15.02;;;;;;;0.81;35.40;96461.56;5042887;28;20337;-60
2022/03/20 07:02:48;;;;;;;28.52;16.83;;;;;;;0.97;35.54;96452.72;5042626;28;20183;-60
2022/03/20 07:05:13;;;;;;;33.90;15.60;;;;;;;0.96;35.48;96464.16;5042505;28;20157;-60
2022/03/20 07:07:40;;;;;;;29.27;18.30;;;;;;;1.30;35.04;96456.75;5040102;28;20500;-60
2022/03/20 07:10:06;;;;;;;24.75;15.73;;;;;;;1.07;35.51;96459.09;5000206;28;20115;-60
2022/03/20 07:12:31;;;;;;;30.90;17.83;;;;;;;1.22;35.72;96464.28;5001359;28;20571;-60
2022/03/20 07:14:57;;;;;;;27.98;17.67;;;;;;;1.72;34.84;96464.59;5034788;28;20098;-60
2022/03/20 07:17:22;;;;;;;27.77;17.13;;;;;;;1.83;34.66;96471.75;5023827;28;20213;-60
2022/03/20 07:19:48;;;;;;;28.52;17.40;;;;;;;2.06;34.65;96464.13;5030599;28;20112;-60
2022/03/20 07:22:14;;;;;;;27.02;18.55;;;;;;;2.59;33.96;96467.59;5038839;28;20143;-60
2022/03/20 07:24:41;;;;;;;30.67;17.27;;;;;;;2.79;32.89;96466.19;5027482;28;20088;-60
2022/03/20 07:29:51;;;;;;;27.48;18.05;;;;;;;2.86;32.63;96485.03;4999424;28;20259;-60
2022/03/20 07:32:16;;;;;;;30.45;18.10;;;;;;;3.16;32.65;96471.47;5017260;28;20090;-60
2022/03/20 07:34:44;;;;;;;25.77;16.98;;;;;;;3.34;32.14;96478.16;5000145;28;20110;-60
2022/03/20 07:37:09;;;;;;;25.95;17.52;;;;;;;3.21;32.20;96473.78;4989289;28;20114;-60
2022/03/20 07:39:35;;;;;;;25.25;15.13;;;;;;;2.65;32.41;96462.75;4996244;28;20093;-60
2022/03/20 07:42:00;;;;;;;24.52;16.73;;;;;;;2.90;32.88;96468.06;4995827;28;20106;-60
2022/03/20 07:44:26;;;;;;;28.48;17.40;;;;;;;2.85;32.97;96473.66;4994366;28;20655;-60
2022/03/20 07:46:54;;;;;;;29.00;17.75;;;;;;;2.96;32.48;96457.09;4999313;28;20141;-60
2022/03/20 07:49:20;;;;;;;28.92;17.77;;;;;;;3.01;32.42;96462.91;4994698;28;20106;-60
2022/03/20 07:51:46;;;;;;;28.58;17.77;;;;;;;3.05;32.69;96452.97;5000601;28;20474;-60
2022/03/20 07:54:12;;;;;;;27.77;18.33;;;;;;;3.09;32.47;96446.53;5002087;28;20123;-60
2022/03/20 07:56:37;;;;;;;26.92;17.65;;;;;;;2.97;32.39;96450.91;5000354;28;20401;-60
2022/03/20 07:59:05;;;;;;;29.35;19.25;;;;;;;3.01;33.30;96448.91;5000892;28;20082;-60
2022/03/20 08:01:32;;;;;;;27.97;17.37;;;;;;;3.21;32.51;96452.72;5005833;28;20133;-60
2022/03/20 08:03:57;;;;;;;26.85;16.42;;;;;;;3.21;32.64;96452.72;5015373;28;20513;-60
2022/03/20 08:06:23;;;;;;;26.65;17.58;;;;;;;3.10;32.79;96440.31;5017892;28;20195;-60
2022/03/20 08:08:48;;;;;;;28.33;18.30;;;;;;;3.31;32.33;96434.47;5021453;28;20096;-60
2022/03/20 08:11:14;;;;;;;26.77;17.45;;;;;;;3.13;32.56;96437.47;5021739;28;20082;-60
2022/03/20 08:13:40;;;;;;;29.10;18.40;;;;;;;3.39;32.19;96428.63;5021013;28;20155;-60
2022/03/20 08:16:05;;;;;;;33.03;18.20;;;;;;;3.58;33.25;96433.44;5021887;28;20522;-60
2022/03/20 08:18:31;;;;;;;25.85;17.98;;;;;;;3.67;32.41;96437.16;5021382;28;20570;-60
2022/03/20 08:20:56;;;;;;;27.80;17.92;;;;;;;3.83;31.94;96428.09;5019607;28;20105;-60
2022/03/20 08:23:21;;;;;;;30.75;20.25;;;;;;;4.24;31.20;96442.56;5020423;28;20080;-60
2022/03/20 08:25:47;;;;;;;32.53;17.25;;;;;;;4.02;32.58;96452.09;5019295;28;20331;-58
2022/03/20 08:28:12;;;;;;;29.50;18.73;;;;;;;4.81;30.55;96460.22;5021785;28;20097;-60
2022/03/20 08:30:40;;;;;;;26.50;19.17;;;;;;;5.19;30.08;96460.81;5021304;28;20191;-60
2022/03/20 08:33:05;;;;;;;28.55;19.02;;;;;;;5.25;29.73;96443.63;5020572;28;20110;-60
2022/03/20 08:35:31;;;;;;;28.15;18.13;;;;;;;5.38;29.27;96459.31;5020581;28;21293;-60
2022/03/20 08:37:56;;;;;;;30.77;19.92;;;;;;;5.89;29.31;96463.13;5015124;28;20105;-60
2022/03/20 08:40:23;;;;;;;29.25;19.70;;;;;;;5.57;29.28;96469.22;5019328;28;20353;-60
2022/03/20 08:42:53;;;;;;;26.17;18.38;;;;;;;6.07;28.24;96465.16;5017999;28;20094;-60
2022/03/20 08:45:18;;;;;;;29.92;19.02;;;;;;;6.26;28.61;96464.47;5016511;28;20143;-60
2022/03/20 08:47:44;;;;;;;26.75;18.85;;;;;;;6.18;29.42;96453.69;5019733;28;20082;-61
2022/03/20 08:50:09;;;;;;;28.48;19.15;;;;;;;5.97;29.14;96468.59;5016756;28;20110;-60
2022/03/20 08:52:35;;;;;;;28.67;17.52;;;;;;;5.70;28.82;96475.19;5010484;28;20086;-60
2022/03/20 08:55:04;;;;;;;29.67;18.98;;;;;;;5.91;28.42;96477.03;5010650;28;20501;-60
2022/03/20 08:57:30;;;;;;;;;;;;;;;6.01;28.88;96481.56;5019572;28;20144;-60
2022/03/20 08:59:56;;;;;;;27.20;18.10;;;;;;;5.91;29.04;96468.28;5014925;28;20025;-60
2022/03/20 09:02:21;;;;;;;28.70;19.63;;;;;;;5.84;28.52;96475.84;5018381;28;20101;-60
2022/03/20 09:04:46;;;;;;;29.33;18.98;;;;;;;5.95;28.65;96462.59;5012907;28;20693;-60
2022/03/20 09:07:12;;;;;;;29.88;19.77;;;;;;;6.02;29.09;96467.38;5019330;28;20093;-60
2022/03/20 09:09:37;;;;;;;35.88;20.45;;;;;;;6.33;28.75;96468.25;5015398;28;20320;-59
2022/03/20 09:12:03;;;;;;;27.60;19.25;;;;;;;6.42;28.99;96476.41;5018748;28;20312;-60
2022/03/20 09:14:29;;;;;;;29.90;18.90;;;;;;;6.62;28.76;96480.00;5018972;28;20102;-60
2022/03/20 09:19:38;;;;;;;28.38;18.95;;;;;;;6.91;28.44;96474.00;5018940;28;20187;-60
2022/03/20 09:22:06;;;;;;;28.20;18.95;;;;;;;7.22;27.62;96476.63;5008356;28;20102;-59
2022/03/20 09:24:32;;;;;;;27.88;19.83;;;;;;;7.35;27.43;96480.81;5010705;28;20074;-60
2022/03/20 09:27:00;;;;;;;27.33;18.60;;;;;;;7.27;27.71;96484.97;5005621;28;20202;-60
2022/03/20 09:29:26;;;;;;;33.63;21.20;;;;;;;6.90;29.98;96474.97;5012605;28;20188;-60
2022/03/20 09:31:51;;;;;;;32.10;19.98;;;;;;;7.60;27.94;96487.41;5013566;28;20438;-60
2022/03/20 09:34:16;;;;;;;30.83;20.27;;;;;;;7.64;27.28;96483.50;5008798;28;20109;-60
2022/03/20 09:36:42;;;;;;;28.33;19.77;;;;;;;7.41;27.62;96496.16;5014104;28;20169;-60
2022/03/20 09:39:07;;;;;;;31.42;19.90;;;;;;;7.65;27.26;96487.00;5008897;28;20089;-60
2022/03/20 09:41:33;;;;;;;32.60;18.95;;;;;;;7.49;28.07;96493.69;5005870;28;20105;-60
2022/03/20 09:44:03;;;;;;;31.65;21.05;;;;;;;8.25;26.97;96490.50;5013346;28;20240;-60
2022/03/20 09:46:28;;;;;;;31.75;20.85;;;;;;;8.33;26.59;96495.13;4996136;28;20102;-60
2022/03/20 09:48:54;;;;;;;27.60;20.25;;;;;;;8.61;26.02;96482.75;5010430;28;20093;-60
2022/03/20 09:51:19;;;;;;;29.63;21.20;;;;;;;8.78;26.11;96497.06;5005820;28;20074;-60
2022/03/20 09:53:44;;;;;;;31.25;20.33;;;;;;;9.14;24.96;96495.56;5002286;28;20677;-61
2022/03/20 09:56:10;;;;;;;28.23;20.48;;;;;;;8.94;25.53;96487.66;4999422;28;20354;-61
2022/03/20 09:58:36;;;;;;;28.48;19.92;;;;;;;9.64;25.07;96477.53;5012234;28;20116;-61
2022/03/20 10:01:02;;;;;;;28.25;20.05;;;;;;;9.45;25.11;96484.63;5010660;28;20638;-61
2022/03/20 10:03:28;;;;;;;25.90;19.55;;;;;;;9.87;24.65;96493.88;5009365;28;20102;-61
2022/03/20 10:06:17;;;;;;;27.90;19.35;;;;;;;10.25;24.51;96488.41;5015637;28;20106;-61
2022/03/20 10:08:55;;;;;;;28.30;20.13;;;;;;;10.27;24.45;96488.25;5005769;28;20166;-60
2022/03/20 10:11:20;;;;;;;29.40;19.27;;;;;;;10.85;23.82;96486.78;5017429;28;20075;-61
2022/03/20 10:14:14;;;;;;;27.42;19.45;;;;;;;10.51;24.50;96484.94;5004217;28;20414;-61
2022/03/20 10:16:41;;;;;;;33.33;20.45;;;;;;;10.72;23.86;96494.38;5011316;28;20531;-61
2022/03/20 10:19:36;;;;;;;26.40;19.63;;;;;;;10.90;23.87;96490.78;4997448;28;20108;-60
2022/03/20 10:22:02;;;;;;;35.63;23.02;;;;;;;11.17;23.49;96497.78;4982254;28;20618;-61
2022/03/20 10:24:29;;;;;;;27.67;19.90;;;;;;;11.35;23.53;96503.03;4999968;28;20082;-61
2022/03/20 10:26:58;;;;;;;26.63;19.58;;;;;;;11.24;23.67;96496.16;4986738;28;20709;-61
2022/03/20 10:29:23;;;;;;;25.60;19.10;;;;;;;11.88;23.27;96489.50;4983490;28;20519;-61
2022/03/20 10:31:50;;;;;;;26.58;19.73;;;;;;;11.76;22.88;96483.63;4993054;28;20076;-61
2022/03/20 10:34:15;;;;;;;27.27;19.33;;;;;;;11.83;23.07;96482.97;4984760;28;20100;-61
2022/03/20 10:36:41;;;;;;;29.20;19.42;;;;;;;11.74;22.77;96484.78;4996088;28;20075;-61
2022/03/20 10:39:15;;;;;;;34.85;24.52;;;;;;;12.06;23.03;96476.97;5023866;28;20248;-58
2022/03/20 10:41:41;;;;;;;26.48;18.60;;;;;;;12.62;22.66;96474.44;4996500;28;20561;-58
2022/03/20 10:44:33;;;;;;;29.45;22.45;;;;;;;12.47;22.69;96489.50;4980100;28;20084;-58
2022/03/20 10:47:16;;;;;;;33.42;22.77;;;;;;;12.51;22.61;96493.53;4994998;28;20420;-60
2022/03/20 10:50:09;;;;;;;25.98;18.88;;;;;;;12.32;22.54;96497.38;4999224;28;20137;-58
2022/03/20 10:52:36;;;;;;;25.70;18.35;;;;;;;11.98;23.41;96493.81;4998319;28;20107;-58
2022/03/20 10:55:07;;;;;;;30.65;19.73;;;;;;;12.16;22.90;96509.72;5013992;28;20122;-58
2022/03/20 10:57:33;;;;;;;29.85;18.65;;;;;;;12.13;22.87;96510.03;5007710;28;20533;-60
2022/03/20 11:00:02;;;;;;;27.65;20.27;;;;;;;12.46;22.90;96512.72;4983051;28;20296;-58
2022/03/20 11:02:27;;;;;;;31.38;20.13;;;;;;;12.69;22.73;96512.03;4995666;28;20087;-58
2022/03/20 11:04:53;;;;;;;27.17;20.40;;;;;;;12.88;22.25;96517.97;5001224;28;20456;-58
2022/03/20 11:07:19;;;;;;;29.60;18.77;;;;;;;12.88;22.94;96518.81;5001805;28;20116;-58
2022/03/20 11:09:53;;;;;;;27.42;19.80;;;;;;;13.21;22.31;96504.56;4997307;28;20103;-58
2022/03/20 11:12:26;;;;;;;32.38;22.90;;;;;;;13.46;22.08;96507.13;5000287;28;20071;-58
2022/03/20 11:14:54;;;;;;;26.48;19.17;;;;;;;13.31;22.24;96517.72;4985092;28;20096;-58
2022/03/20 11:17:20;;;;;;;27.67;20.37;;;;;;;13.50;22.33;96512.97;4994895;28;20137;-59
2022/03/20 11:19:52;;;;;;;26.95;20.13;;;;;;;13.68;22.08;96500.16;4995683;28;20157;-61
2022/03/20 11:22:22;;;;;;;32.58;21.65;;;;;;;13.14;22.65;96501.75;4995293;28;20096;-61
2022/03/20 11:24:49;;;;;;;26.77;19.30;;;;;;;14.02;22.34;96495.47;4996565;28;20071;-61
2022/03/20 11:27:27;;;;;;;26.63;18.20;;;;;;;14.01;22.14;96495.63;4994542;28;20204;-61
2022/03/20 11:30:03;;;;;;;25.33;18.77;;;;;;;13.65;21.80;96497.00;4996552;28;20123;-59
2022/03/20 11:32:29;;;;;;;26.15;19.13;;;;;;;13.76;22.13;96503.78;4996841;28;20148;-61
2022/03/20 11:34:54;;;;;;;29.35;21.95;;;;;;;13.52;22.08;96502.91;5005424;28;20084;-61
2022/03/20 11:37:19;;;;;;;22.73;17.83;;;;;;;14.31;21.55;96501.91;5001796;28;20089;-61
2022/03/20 11:40:11;;;;;;;25.10;18.70;;;;;;;14.63;21.50;96500.97;5013120;28;20079;-60
2022/03/20 11:42:37;;;;;;;23.27;17.92;;;;;;;14.03;21.97;96513.19;5016436;28;20518;-60
2022/03/20 11:45:03;;;;;;;29.40;20.40;;;;;;;14.15;22.04;96494.88;5016348;28;20098;-61
2022/03/20 11:47:30;;;;;;;25.65;18.63;;;;;;;14.17;21.87;96498.19;5015967;28;20826;-60